Wetterdaten: Woche 28.05.07 - 03.06.07 (KW22)
Datum Zeit Temperatur Luftfeuchte Luftdruck Niederschlag Wind Richtung Sonnenschein Solar Taupunkt Windchill Windben
28.05.2007 00:00 13.0 C 98 % 998.5 hPa 0.4 l/m 0.5 km/h (0 Bft) NW 0.00 h 0 W/m 12.7 C 13.0 C 1.4 km/h (1 Bft)
28.05.2007 01:00 11.7 C 97 % 998.4 hPa 0.2 l/m 8.8 km/h (2 Bft) W 0.00 h 0 W/m 11.3 C 11.7 C 14.6 km/h (3 Bft)
28.05.2007 02:00 11.1 C 97 % 998.4 hPa 0.8 l/m 4.7 km/h (1 Bft) W-NW 0.00 h 0 W/m 10.6 C 11.1 C 7.9 km/h (2 Bft)
28.05.2007 03:00 10.7 C 98 % 998.4 hPa 1.6 l/m 11.5 km/h (2 Bft) W 0.00 h 0 W/m 10.4 C 10.4 C 17.8 km/h (3 Bft)
28.05.2007 04:00 8.8 C 96 % 999.0 hPa 2.4 l/m 13.0 km/h (3 Bft) W 0.00 h 0 W/m 8.2 C 6.8 C 20.4 km/h (4 Bft)
28.05.2007 05:00 8.0 C 97 % 999.2 hPa 2.0 l/m 7.6 km/h (2 Bft) W 0.00 h 0 W/m 7.6 C 6.9 C 12.0 km/h (2 Bft)
28.05.2007 06:00 7.6 C 97 % 999.4 hPa 1.6 l/m 6.5 km/h (2 Bft) W 0.00 h 10 W/m 7.2 C 6.6 C 10.7 km/h (2 Bft)
28.05.2007 07:00 7.1 C 97 % 999.8 hPa 1.8 l/m 2.2 km/h (1 Bft) W-SW 0.00 h 19 W/m 6.7 C 6.9 C 4.4 km/h (1 Bft)
28.05.2007 08:00 7.0 C 98 % 1000.1 hPa 1.4 l/m 2.4 km/h (1 Bft) W-SW 0.00 h 45 W/m 6.7 C 6.8 C 5.0 km/h (1 Bft)
28.05.2007 09:00 7.2 C 97 % 1000.5 hPa 1.2 l/m 0.8 km/h (0 Bft) S-SO 0.00 h 98 W/m 6.8 C 7.2 C 2.7 km/h (1 Bft)
28.05.2007 10:00 8.2 C 97 % 1000.1 hPa 0.4 l/m 1.0 km/h (0 Bft) S-SO 0.00 h 224 W/m 7.7 C 8.2 C 3.2 km/h (1 Bft)
28.05.2007 11:00 8.5 C 94 % 1000.1 hPa 0.2 l/m 1.5 km/h (1 Bft) S-SO 0.00 h 144 W/m 7.7 C 8.5 C 3.9 km/h (1 Bft)
28.05.2007 12:00 8.9 C 96 % 1000.6 hPa 0.8 l/m 2.2 km/h (1 Bft) S 0.00 h 225 W/m 8.3 C 8.8 C 4.9 km/h (1 Bft)
28.05.2007 13:00 9.6 C 96 % 1000.5 hPa 0.6 l/m 2.8 km/h (1 Bft) W-SW 0.03 h 316 W/m 9.0 C 9.6 C 5.1 km/h (1 Bft)
28.05.2007 14:00 10.0 C 93 % 1000.7 hPa 0.0 l/m 4.5 km/h (1 Bft) SW 0.00 h 326 W/m 8.8 C 9.8 C 8.2 km/h (2 Bft)
28.05.2007 15:00 9.2 C 93 % 1001.2 hPa 0.0 l/m 4.7 km/h (1 Bft) SW 0.00 h 201 W/m 8.1 C 8.9 C 9.9 km/h (2 Bft)
28.05.2007 16:00 9.5 C 93 % 1001.4 hPa 0.2 l/m 3.2 km/h (1 Bft) S-SW 0.00 h 195 W/m 8.4 C 9.4 C 6.9 km/h (2 Bft)
28.05.2007 17:00 9.7 C 91 % 1001.6 hPa 0.0 l/m 2.9 km/h (1 Bft) S 0.00 h 141 W/m 8.3 C 9.6 C 6.8 km/h (2 Bft)
28.05.2007 18:00 9.7 C 90 % 1001.9 hPa 0.0 l/m 1.7 km/h (1 Bft) S-SO 0.00 h 81 W/m 8.1 C 9.7 C 4.4 km/h (1 Bft)
28.05.2007 19:00 9.5 C 91 % 1002.2 hPa 0.0 l/m 2.8 km/h (1 Bft) S-SO 0.00 h 47 W/m 8.1 C 9.4 C 6.1 km/h (2 Bft)
28.05.2007 20:00 9.0 C 92 % 1002.6 hPa 0.2 l/m 3.3 km/h (1 Bft) S-SO 0.00 h 18 W/m 7.8 C 8.8 C 6.4 km/h (2 Bft)
28.05.2007 21:00 8.8 C 94 % 1002.9 hPa 0.2 l/m 1.8 km/h (1 Bft) S-SO 0.00 h 0 W/m 7.9 C 8.8 C 4.6 km/h (1 Bft)
28.05.2007 22:00 8.7 C 95 % 1003.3 hPa 0.4 l/m 1.6 km/h (1 Bft) S-SW 0.00 h 0 W/m 8.0 C 8.7 C 4.4 km/h (1 Bft)
28.05.2007 23:00 8.5 C 97 % 1003.6 hPa 0.8 l/m 1.4 km/h (1 Bft) S-SO 0.00 h 0 W/m 8.0 C 8.5 C 3.8 km/h (1 Bft)
29.05.2007 00:00 8.4 C 98 % 1003.5 hPa 0.6 l/m 1.5 km/h (1 Bft) S-SO 0.00 h 0 W/m 8.0 C 8.4 C 3.8 km/h (1 Bft)
29.05.2007 01:00 8.5 C 98 % 1003.5 hPa 0.0 l/m 2.4 km/h (1 Bft) SW 0.00 h 0 W/m 8.2 C 8.4 C 5.5 km/h (1 Bft)
29.05.2007 02:00 8.8 C 98 % 1003.3 hPa 0.0 l/m 5.7 km/h (1 Bft) W-SW 0.00 h 0 W/m 8.5 C 8.0 C 10.3 km/h (2 Bft)
29.05.2007 03:00 9.0 C 97 % 1003.3 hPa 0.2 l/m 12.7 km/h (3 Bft) W 0.00 h 0 W/m 8.6 C 7.1 C 19.6 km/h (3 Bft)
29.05.2007 04:00 9.1 C 95 % 1003.5 hPa 0.0 l/m 13.2 km/h (3 Bft) W 0.00 h 0 W/m 8.3 C 7.1 C 20.9 km/h (4 Bft)
29.05.2007 05:00 9.2 C 92 % 1003.7 hPa 0.0 l/m 10.9 km/h (2 Bft) W 0.00 h 5 W/m 8.0 C 7.6 C 17.6 km/h (3 Bft)
29.05.2007 06:00 9.3 C 92 % 1003.6 hPa 0.2 l/m 11.5 km/h (2 Bft) W 0.00 h 28 W/m 8.1 C 7.6 C 18.6 km/h (3 Bft)
29.05.2007 07:00 9.1 C 92 % 1004.0 hPa 0.2 l/m 16.7 km/h (3 Bft) W 0.00 h 39 W/m 7.9 C 6.7 C 25.8 km/h (4 Bft)
29.05.2007 08:00 8.7 C 91 % 1004.9 hPa 0.0 l/m 21.3 km/h (4 Bft) W 0.00 h 63 W/m 7.3 C 5.6 C 31.6 km/h (5 Bft)
29.05.2007 09:00 8.4 C 90 % 1005.9 hPa 0.0 l/m 21.8 km/h (4 Bft) W 0.00 h 75 W/m 6.9 C 5.2 C 32.9 km/h (5 Bft)
29.05.2007 10:00 8.2 C 90 % 1006.8 hPa 0.0 l/m 23.1 km/h (4 Bft) W 0.00 h 128 W/m 6.6 C 4.8 C 34.9 km/h (5 Bft)
29.05.2007 11:00 7.8 C 91 % 1008.0 hPa 0.2 l/m 22.5 km/h (4 Bft) W 0.00 h 105 W/m 6.4 C 4.4 C 34.0 km/h (5 Bft)
29.05.2007 12:00 7.6 C 91 % 1008.6 hPa 0.2 l/m 18.6 km/h (3 Bft) W 0.00 h 82 W/m 6.2 C 4.6 C 28.0 km/h (4 Bft)
29.05.2007 13:00 7.7 C 89 % 1009.2 hPa 0.0 l/m 18.3 km/h (3 Bft) W 0.00 h 77 W/m 6.0 C 4.7 C 27.6 km/h (4 Bft)
29.05.2007 14:00 8.3 C 86 % 1009.9 hPa 0.0 l/m 13.2 km/h (3 Bft) W 0.00 h 97 W/m 6.0 C 6.1 C 21.0 km/h (4 Bft)
29.05.2007 15:00 7.8 C 91 % 1010.9 hPa 1.0 l/m 13.5 km/h (3 Bft) W 0.00 h 82 W/m 6.5 C 5.4 C 21.2 km/h (4 Bft)
29.05.2007 16:00 7.7 C 93 % 1011.5 hPa 0.4 l/m 13.2 km/h (3 Bft) W 0.00 h 78 W/m 6.6 C 5.4 C 20.6 km/h (4 Bft)
29.05.2007 17:00 7.8 C 91 % 1012.2 hPa 0.2 l/m 14.2 km/h (3 Bft) W 0.00 h 68 W/m 6.5 C 5.4 C 22.1 km/h (4 Bft)
29.05.2007 18:00 8.0 C 89 % 1012.9 hPa 0.0 l/m 8.4 km/h (2 Bft) W 0.00 h 49 W/m 6.3 C 6.7 C 14.2 km/h (3 Bft)
29.05.2007 19:00 8.3 C 87 % 1013.6 hPa 0.0 l/m 4.7 km/h (1 Bft) W 0.00 h 48 W/m 6.3 C 7.9 C 8.5 km/h (2 Bft)
29.05.2007 20:00 8.5 C 83 % 1014.2 hPa 0.0 l/m 4.3 km/h (1 Bft) W-NW 0.00 h 21 W/m 5.8 C 8.0 C 7.4 km/h (2 Bft)
29.05.2007 21:00 8.2 C 84 % 1014.8 hPa 0.0 l/m 2.9 km/h (1 Bft) S-SO 0.03 h 8 W/m 5.7 C 8.1 C 4.8 km/h (1 Bft)
29.05.2007 22:00 7.5 C 86 % 1015.8 hPa 0.0 l/m 2.4 km/h (1 Bft) O-SO 0.00 h 0 W/m 5.4 C 7.5 C 3.6 km/h (1 Bft)
29.05.2007 23:00 6.8 C 90 % 1016.4 hPa 0.0 l/m 0.8 km/h (0 Bft) O-SO 0.00 h 0 W/m 5.3 C 6.8 C 1.8 km/h (1 Bft)
30.05.2007 00:00 6.2 C 93 % 1016.9 hPa 0.0 l/m 1.4 km/h (1 Bft) O-SO 0.00 h 0 W/m 5.2 C 6.2 C 2.5 km/h (1 Bft)
30.05.2007 01:00 5.2 C 95 % 1017.1 hPa 0.0 l/m 1.4 km/h (1 Bft) O-SO 0.00 h 0 W/m 4.6 C 5.2 C 2.4 km/h (1 Bft)
30.05.2007 02:00 4.6 C 97 % 1017.0 hPa 0.0 l/m 1.1 km/h (0 Bft) O-SO 0.00 h 0 W/m 4.2 C 4.6 C 2.1 km/h (1 Bft)
30.05.2007 03:00 4.9 C 98 % 1016.6 hPa 0.0 l/m 0.3 km/h (0 Bft) O-SO 0.00 h 0 W/m 4.7 C 4.9 C 0.9 km/h (0 Bft)
30.05.2007 04:00 4.9 C 99 % 1016.5 hPa 0.0 l/m 0.3 km/h (0 Bft) O-SO 0.00 h 0 W/m 4.8 C 4.9 C 1.0 km/h (0 Bft)
30.05.2007 05:00 4.4 C 99 % 1016.5 hPa 0.0 l/m 1.3 km/h (1 Bft) O 0.00 h 5 W/m 4.3 C 4.4 C 2.7 km/h (1 Bft)
30.05.2007 06:00 4.7 C 100 % 1016.5 hPa 0.0 l/m 1.0 km/h (0 Bft) O 0.00 h 28 W/m 4.7 C 4.7 C 2.2 km/h (1 Bft)
30.05.2007 07:00 5.3 C 100 % 1016.8 hPa 0.0 l/m 0.8 km/h (0 Bft) W-NW 0.00 h 64 W/m 5.3 C 5.3 C 2.1 km/h (1 Bft)
30.05.2007 08:00 5.9 C 100 % 1016.9 hPa 0.0 l/m 1.4 km/h (1 Bft) W 0.00 h 146 W/m 5.9 C 5.9 C 3.4 km/h (1 Bft)
30.05.2007 09:00 7.9 C 95 % 1016.5 hPa 0.0 l/m 1.9 km/h (1 Bft) W 0.70 h 465 W/m 7.2 C 7.9 C 3.9 km/h (1 Bft)
30.05.2007 10:00 11.6 C 78 % 1015.7 hPa 0.0 l/m 2.9 km/h (1 Bft) W-NW 1.00 h 692 W/m 7.9 C 11.6 C 5.0 km/h (1 Bft)
30.05.2007 11:00 14.0 C 50 % 1015.1 hPa 0.0 l/m 4.3 km/h (1 Bft) O-SO 0.85 h 712 W/m 3.7 C 14.0 C 8.1 km/h (2 Bft)
30.05.2007 12:00 15.0 C 49 % 1014.7 hPa 0.0 l/m 4.7 km/h (1 Bft) O-SO 1.00 h 886 W/m 4.5 C 15.0 C 8.7 km/h (2 Bft)
30.05.2007 13:00 15.9 C 48 % 1014.4 hPa 0.0 l/m 5.5 km/h (1 Bft) O-SO 1.00 h 891 W/m 4.8 C 15.9 C 9.4 km/h (2 Bft)
30.05.2007 14:00 16.4 C 45 % 1014.1 hPa 0.0 l/m 5.1 km/h (1 Bft) O-SO 0.93 h 759 W/m 4.3 C 16.4 C 8.6 km/h (2 Bft)
30.05.2007 15:00 16.3 C 46 % 1013.7 hPa 0.0 l/m 3.3 km/h (1 Bft) O-SO 0.92 h 541 W/m 4.6 C 16.3 C 6.2 km/h (2 Bft)
30.05.2007 16:00 16.2 C 46 % 1013.6 hPa 0.0 l/m 1.7 km/h (1 Bft) O-SO 0.13 h 360 W/m 4.4 C 16.2 C 3.9 km/h (1 Bft)
30.05.2007 17:00 17.2 C 43 % 1013.3 hPa 0.0 l/m 2.4 km/h (1 Bft) O-SO 0.97 h 537 W/m 4.5 C 17.2 C 5.2 km/h (1 Bft)
30.05.2007 18:00 17.5 C 44 % 1012.8 hPa 0.0 l/m 2.6 km/h (1 Bft) O 1.00 h 408 W/m 5.1 C 17.5 C 5.1 km/h (1 Bft)
30.05.2007 19:00 16.5 C 46 % 1012.8 hPa 0.0 l/m 1.9 km/h (1 Bft) O-SO 0.87 h 178 W/m 4.8 C 16.5 C 3.7 km/h (1 Bft)
30.05.2007 20:00 14.5 C 58 % 1012.7 hPa 0.0 l/m 2.4 km/h (1 Bft) SO 0.00 h 40 W/m 6.3 C 14.5 C 3.9 km/h (1 Bft)
30.05.2007 21:00 12.0 C 68 % 1013.1 hPa 0.0 l/m 2.0 km/h (1 Bft) O-SO 0.00 h 6 W/m 6.1 C 12.0 C 3.0 km/h (1 Bft)
30.05.2007 22:00 10.3 C 79 % 1013.2 hPa 0.0 l/m 1.1 km/h (1 Bft) O-SO 0.00 h 0 W/m 6.8 C 10.3 C 1.7 km/h (1 Bft)
30.05.2007 23:00 9.3 C 84 % 1013.4 hPa 0.0 l/m 0.4 km/h (0 Bft) O-SO 0.00 h 0 W/m 6.8 C 9.3 C 1.0 km/h (0 Bft)
31.05.2007 00:00 8.7 C 88 % 1013.3 hPa 0.0 l/m 0.3 km/h (0 Bft) O-SO 0.00 h 0 W/m 6.8 C 8.7 C 0.9 km/h (0 Bft)
31.05.2007 01:00 7.9 C 89 % 1013.3 hPa 0.0 l/m 1.6 km/h (1 Bft) O-SO 0.00 h 0 W/m 6.2 C 7.9 C 2.6 km/h (1 Bft)
31.05.2007 02:00 7.7 C 90 % 1013.3 hPa 0.0 l/m 1.7 km/h (1 Bft) O-SO 0.00 h 0 W/m 6.1 C 7.7 C 2.9 km/h (1 Bft)
31.05.2007 03:00 8.0 C 89 % 1013.3 hPa 0.0 l/m 1.0 km/h (0 Bft) O-SO 0.00 h 0 W/m 6.3 C 8.0 C 1.7 km/h (1 Bft)
31.05.2007 04:00 8.4 C 88 % 1013.3 hPa 0.0 l/m 0.0 km/h (0 Bft) N 0.00 h 0 W/m 6.5 C 8.4 C 0.1 km/h (0 Bft)
31.05.2007 05:00 8.5 C 90 % 1013.3 hPa 0.0 l/m 0.0 km/h (0 Bft) N 0.00 h 0 W/m 6.9 C 8.5 C 0.3 km/h (0 Bft)
31.05.2007 06:00 8.6 C 92 % 1013.8 hPa 0.2 l/m 0.2 km/h (0 Bft) W 0.00 h 14 W/m 7.3 C 8.6 C 0.9 km/h (0 Bft)
31.05.2007 07:00 9.1 C 92 % 1013.9 hPa 0.0 l/m 0.3 km/h (0 Bft) W-NW 0.00 h 56 W/m 8.0 C 9.1 C 0.8 km/h (0 Bft)
31.05.2007 08:00 10.0 C 88 % 1014.5 hPa 0.0 l/m 0.9 km/h (0 Bft) W-NW 0.00 h 165 W/m 8.1 C 10.0 C 2.6 km/h (1 Bft)
31.05.2007 09:00 12.3 C 80 % 1014.2 hPa 0.0 l/m 1.3 km/h (1 Bft) W-NW 0.53 h 435 W/m 9.0 C 12.3 C 2.8 km/h (1 Bft)
31.05.2007 10:00 14.8 C 70 % 1013.9 hPa 0.0 l/m 2.4 km/h (1 Bft) W-NW 0.92 h 640 W/m 9.5 C 14.8 C 4.1 km/h (1 Bft)
31.05.2007 11:00 17.2 C 63 % 1013.4 hPa 0.0 l/m 2.8 km/h (1 Bft) W-NW 1.00 h 772 W/m 10.0 C 17.2 C 5.1 km/h (1 Bft)
31.05.2007 12:00 18.9 C 59 % 1012.8 hPa 0.0 l/m 3.6 km/h (1 Bft) W-NW 0.88 h 828 W/m 10.6 C 18.9 C 6.0 km/h (2 Bft)
31.05.2007 13:00 19.8 C 54 % 1012.1 hPa 0.0 l/m 3.2 km/h (1 Bft) W-SW 0.98 h 838 W/m 10.2 C 19.8 C 5.7 km/h (1 Bft)
31.05.2007 14:00 20.7 C 51 % 1011.3 hPa 0.0 l/m 2.8 km/h (1 Bft) W 0.77 h 721 W/m 10.2 C 20.7 C 5.1 km/h (1 Bft)
31.05.2007 15:00 21.5 C 47 % 1010.4 hPa 0.0 l/m 2.4 km/h (1 Bft) S-SO 1.00 h 733 W/m 9.7 C 21.5 C 4.6 km/h (1 Bft)
31.05.2007 16:00 21.7 C 48 % 1009.6 hPa 0.0 l/m 3.7 km/h (1 Bft) O-SO 0.80 h 594 W/m 10.1 C 21.7 C 6.5 km/h (2 Bft)
31.05.2007 17:00 20.9 C 49 % 1009.1 hPa 0.0 l/m 2.2 km/h (1 Bft) NO 0.20 h 265 W/m 9.6 C 20.9 C 4.6 km/h (1 Bft)
31.05.2007 18:00 20.5 C 51 % 1008.6 hPa 0.0 l/m 1.3 km/h (1 Bft) O-SO 0.00 h 161 W/m 10.0 C 20.5 C 3.1 km/h (1 Bft)
31.05.2007 19:00 19.7 C 53 % 1008.2 hPa 0.0 l/m 1.1 km/h (1 Bft) O-NO 0.00 h 62 W/m 9.8 C 19.7 C 3.2 km/h (1 Bft)
31.05.2007 20:00 18.9 C 55 % 1008.1 hPa 0.0 l/m 1.3 km/h (1 Bft) N 0.00 h 15 W/m 9.6 C 18.9 C 3.5 km/h (1 Bft)
31.05.2007 21:00 17.3 C 69 % 1008.7 hPa 0.0 l/m 1.6 km/h (1 Bft) N-NW 0.00 h 0 W/m 11.5 C 17.3 C 3.2 km/h (1 Bft)
31.05.2007 22:00 15.1 C 81 % 1009.3 hPa 0.0 l/m 2.8 km/h (1 Bft) N-NW 0.00 h 0 W/m 11.8 C 15.1 C 5.7 km/h (1 Bft)
31.05.2007 23:00 13.8 C 87 % 1009.9 hPa 0.0 l/m 5.2 km/h (1 Bft) W 0.00 h 0 W/m 11.7 C 13.8 C 9.8 km/h (2 Bft)
01.06.2007 00:00 13.2 C 89 % 1010.3 hPa 0.2 l/m 15.6 km/h (3 Bft) W 0.00 h 0 W/m 11.5 C 13.2 C 24.3 km/h (4 Bft)
01.06.2007 01:00 12.3 C 91 % 1010.6 hPa 0.2 l/m 12.8 km/h (3 Bft) W 0.00 h 0 W/m 10.8 C 12.3 C 21.0 km/h (4 Bft)
01.06.2007 02:00 11.8 C 92 % 1011.2 hPa 0.8 l/m 5.2 km/h (1 Bft) W 0.00 h 0 W/m 10.6 C 11.8 C 9.8 km/h (2 Bft)
01.06.2007 03:00 11.2 C 95 % 1011.4 hPa 0.8 l/m 2.5 km/h (1 Bft) W-SW 0.00 h 0 W/m 10.4 C 11.2 C 5.1 km/h (1 Bft)
01.06.2007 04:00 10.8 C 97 % 1011.4 hPa 0.0 l/m 5.8 km/h (2 Bft) W 0.00 h 0 W/m 10.3 C 10.8 C 9.4 km/h (2 Bft)
01.06.2007 05:00 10.8 C 96 % 1011.9 hPa 0.2 l/m 1.6 km/h (1 Bft) W 0.00 h 5 W/m 10.2 C 10.8 C 3.3 km/h (1 Bft)
01.06.2007 06:00 11.0 C 96 % 1012.3 hPa 0.6 l/m 0.2 km/h (0 Bft) W-SW 0.00 h 11 W/m 10.4 C 11.0 C 0.7 km/h (0 Bft)
01.06.2007 07:00 11.4 C 96 % 1012.6 hPa 0.2 l/m 0.3 km/h (0 Bft) SW 0.00 h 44 W/m 10.8 C 11.4 C 1.0 km/h (0 Bft)
01.06.2007 08:00 11.9 C 97 % 1013.0 hPa 0.4 l/m 0.4 km/h (0 Bft) W-SW 0.00 h 102 W/m 11.5 C 11.9 C 1.5 km/h (1 Bft)
01.06.2007 09:00 12.1 C 95 % 1013.5 hPa 0.0 l/m 5.1 km/h (1 Bft) W 0.00 h 127 W/m 11.3 C 12.1 C 8.4 km/h (2 Bft)
01.06.2007 10:00 11.7 C 94 % 1014.2 hPa 0.2 l/m 9.0 km/h (2 Bft) W 0.00 h 151 W/m 10.8 C 11.7 C 14.0 km/h (3 Bft)
01.06.2007 11:00 12.1 C 92 % 1014.7 hPa 0.0 l/m 7.9 km/h (2 Bft) W 0.00 h 218 W/m 10.8 C 12.1 C 12.9 km/h (3 Bft)
01.06.2007 12:00 12.9 C 89 % 1014.9 hPa 0.0 l/m 7.8 km/h (2 Bft) W 0.00 h 328 W/m 11.1 C 12.9 C 12.7 km/h (3 Bft)
01.06.2007 13:00 13.5 C 87 % 1014.9 hPa 0.0 l/m 6.2 km/h (2 Bft) W-SW 0.00 h 318 W/m 11.3 C 13.5 C 10.0 km/h (2 Bft)
01.06.2007 14:00 13.3 C 88 % 1015.0 hPa 0.4 l/m 5.8 km/h (2 Bft) W-SW 0.00 h 231 W/m 11.4 C 13.3 C 9.6 km/h (2 Bft)
01.06.2007 15:00 13.4 C 91 % 1015.3 hPa 0.4 l/m 1.9 km/h (1 Bft) W-SW 0.00 h 180 W/m 12.0 C 13.4 C 4.5 km/h (1 Bft)
01.06.2007 16:00 13.6 C 93 % 1015.5 hPa 0.0 l/m 0.2 km/h (0 Bft) S-SW 0.00 h 136 W/m 12.4 C 13.6 C 1.6 km/h (1 Bft)
01.06.2007 17:00 13.1 C 93 % 1016.0 hPa 1.0 l/m 1.9 km/h (1 Bft) W-SW 0.00 h 91 W/m 12.0 C 13.1 C 4.6 km/h (1 Bft)
01.06.2007 18:00 12.5 C 97 % 1016.2 hPa 2.8 l/m 1.7 km/h (1 Bft) SW 0.00 h 28 W/m 12.0 C 12.5 C 4.3 km/h (1 Bft)
01.06.2007 19:00 11.9 C 98 % 1016.6 hPa 1.2 l/m 1.1 km/h (1 Bft) W-NW 0.00 h 18 W/m 11.6 C 11.9 C 2.6 km/h (1 Bft)
01.06.2007 20:00 11.6 C 97 % 1017.0 hPa 0.2 l/m 0.5 km/h (0 Bft) S-SO 0.00 h 8 W/m 11.1 C 11.6 C 2.3 km/h (1 Bft)
01.06.2007 21:00 11.4 C 97 % 1017.4 hPa 0.2 l/m 1.8 km/h (1 Bft) S-SO 0.00 h 0 W/m 10.9 C 11.4 C 3.9 km/h (1 Bft)
01.06.2007 22:00 11.0 C 97 % 1018.1 hPa 0.0 l/m 2.9 km/h (1 Bft) S-SO 0.00 h 0 W/m 10.5 C 11.0 C 6.0 km/h (2 Bft)
01.06.2007 23:00 10.5 C 97 % 1018.4 hPa 0.0 l/m 3.7 km/h (1 Bft) S-SO 0.00 h 0 W/m 10.1 C 10.5 C 7.0 km/h (2 Bft)
02.06.2007 00:00 10.4 C 96 % 1018.5 hPa 0.4 l/m 3.7 km/h (1 Bft) S-SO 0.00 h 0 W/m 9.8 C 10.4 C 6.3 km/h (2 Bft)
02.06.2007 01:00 10.2 C 96 % 1018.4 hPa 0.4 l/m 2.4 km/h (1 Bft) SO 0.00 h 0 W/m 9.7 C 10.2 C 4.5 km/h (1 Bft)
02.06.2007 02:00 10.1 C 96 % 1018.4 hPa 0.2 l/m 1.2 km/h (1 Bft) S-SO 0.00 h 0 W/m 9.6 C 10.1 C 3.1 km/h (1 Bft)
02.06.2007 03:00 9.9 C 97 % 1018.4 hPa 0.0 l/m 2.8 km/h (1 Bft) S-SO 0.00 h 0 W/m 9.5 C 9.9 C 5.1 km/h (1 Bft)
02.06.2007 04:00 9.9 C 96 % 1018.6 hPa 0.0 l/m 2.2 km/h (1 Bft) S-SO 0.00 h 0 W/m 9.3 C 9.9 C 4.5 km/h (1 Bft)
02.06.2007 05:00 9.9 C 97 % 1018.8 hPa 0.4 l/m 0.9 km/h (0 Bft) S-SO 0.00 h 0 W/m 9.4 C 9.9 C 2.6 km/h (1 Bft)
02.06.2007 06:00 9.9 C 98 % 1019.1 hPa 0.2 l/m 0.8 km/h (0 Bft) S-SO 0.00 h 13 W/m 9.6 C 9.9 C 2.3 km/h (1 Bft)
02.06.2007 07:00 10.1 C 98 % 1019.5 hPa 0.0 l/m 0.7 km/h (0 Bft) S-SO 0.00 h 21 W/m 9.8 C 10.1 C 2.1 km/h (1 Bft)
02.06.2007 08:00 10.2 C 98 % 1019.9 hPa 0.2 l/m 1.5 km/h (1 Bft) S-SO 0.00 h 48 W/m 9.9 C 10.2 C 3.6 km/h (1 Bft)
02.06.2007 09:00 10.8 C 98 % 1020.3 hPa 0.0 l/m 0.8 km/h (0 Bft) S-SO 0.00 h 103 W/m 10.6 C 10.8 C 2.8 km/h (1 Bft)
02.06.2007 10:00 11.5 C 97 % 1020.6 hPa 0.0 l/m 0.9 km/h (0 Bft) S-SO 0.00 h 175 W/m 11.1 C 11.5 C 3.0 km/h (1 Bft)
02.06.2007 11:00 12.1 C 94 % 1020.6 hPa 0.0 l/m 1.8 km/h (1 Bft) S-SO 0.00 h 200 W/m 11.3 C 12.1 C 4.5 km/h (1 Bft)
02.06.2007 12:00 12.7 C 93 % 1020.7 hPa 0.0 l/m 1.5 km/h (1 Bft) S-SO 0.00 h 206 W/m 11.6 C 12.7 C 3.9 km/h (1 Bft)
02.06.2007 13:00 13.3 C 91 % 1020.6 hPa 0.0 l/m 1.6 km/h (1 Bft) S-SO 0.00 h 228 W/m 11.9 C 13.3 C 4.4 km/h (1 Bft)
02.06.2007 14:00 13.4 C 91 % 1020.5 hPa 0.0 l/m 1.7 km/h (1 Bft) S-SO 0.00 h 131 W/m 12.0 C 13.4 C 4.3 km/h (1 Bft)
02.06.2007 15:00 13.7 C 91 % 1020.8 hPa 0.0 l/m 1.4 km/h (1 Bft) S-SO 0.00 h 197 W/m 12.2 C 13.7 C 4.2 km/h (1 Bft)
02.06.2007 16:00 14.8 C 88 % 1020.5 hPa 0.0 l/m 1.9 km/h (1 Bft) W-SW 0.00 h 296 W/m 12.8 C 14.8 C 4.6 km/h (1 Bft)
02.06.2007 17:00 15.1 C 85 % 1020.4 hPa 0.0 l/m 1.8 km/h (1 Bft) S-SO 0.05 h 251 W/m 12.6 C 15.1 C 4.0 km/h (1 Bft)
02.06.2007 18:00 15.0 C 87 % 1020.4 hPa 0.0 l/m 1.1 km/h (0 Bft) W 0.00 h 117 W/m 12.8 C 15.0 C 2.6 km/h (1 Bft)
02.06.2007 19:00 14.7 C 87 % 1020.6 hPa 0.0 l/m 0.2 km/h (0 Bft) S-SO 0.00 h 39 W/m 12.5 C 14.7 C 0.7 km/h (0 Bft)
02.06.2007 20:00 14.2 C 90 % 1020.4 hPa 0.0 l/m 0.1 km/h (0 Bft) SO 0.00 h 23 W/m 12.5 C 14.2 C 0.6 km/h (0 Bft)
02.06.2007 21:00 12.7 C 94 % 1020.5 hPa 0.0 l/m 0.8 km/h (0 Bft) O-SO 0.00 h 5 W/m 11.7 C 12.7 C 1.8 km/h (1 Bft)
02.06.2007 22:00 11.5 C 97 % 1021.0 hPa 0.0 l/m 2.5 km/h (1 Bft) O-SO 0.00 h 0 W/m 11.1 C 11.5 C 3.5 km/h (1 Bft)
02.06.2007 23:00 11.8 C 98 % 1020.9 hPa 0.0 l/m 0.4 km/h (0 Bft) O-SO 0.00 h 0 W/m 11.6 C 11.8 C 0.8 km/h (0 Bft)
03.06.2007 00:00 12.2 C 99 % 1020.8 hPa 0.0 l/m 0.4 km/h (0 Bft) O-SO 0.00 h 0 W/m 12.1 C 12.2 C 0.8 km/h (0 Bft)
03.06.2007 01:00 11.9 C 99 % 1020.5 hPa 0.0 l/m 0.6 km/h (0 Bft) O-SO 0.00 h 0 W/m 11.8 C 11.9 C 1.5 km/h (1 Bft)
03.06.2007 02:00 11.7 C 100 % 1020.1 hPa 0.0 l/m 0.3 km/h (0 Bft) N-NO 0.00 h 0 W/m 11.7 C 11.7 C 0.8 km/h (0 Bft)
03.06.2007 03:00 11.5 C 100 % 1019.7 hPa 0.0 l/m 1.7 km/h (1 Bft) N-NW 0.00 h 0 W/m 11.5 C 11.5 C 3.5 km/h (1 Bft)
03.06.2007 04:00 11.0 C 100 % 1019.6 hPa 0.0 l/m 0.7 km/h (0 Bft) N-NW 0.00 h 0 W/m 11.0 C 11.0 C 1.8 km/h (1 Bft)
03.06.2007 05:00 10.7 C 100 % 1019.5 hPa 0.0 l/m 1.5 km/h (1 Bft) O-SO 0.00 h 10 W/m 10.7 C 10.7 C 2.6 km/h (1 Bft)
03.06.2007 06:00 10.8 C 100 % 1019.6 hPa 0.0 l/m 2.2 km/h (1 Bft) O-SO 0.00 h 18 W/m 10.8 C 10.8 C 3.2 km/h (1 Bft)
03.06.2007 07:00 11.5 C 100 % 1019.6 hPa 0.0 l/m 0.0 km/h (0 Bft) N 0.00 h 46 W/m 11.5 C 11.5 C 0.0 km/h (0 Bft)
03.06.2007 08:00 12.5 C 99 % 1019.7 hPa 0.0 l/m 0.3 km/h (0 Bft) O 0.00 h 95 W/m 12.3 C 12.5 C 0.8 km/h (0 Bft)
03.06.2007 09:00 13.4 C 94 % 1019.7 hPa 0.0 l/m 0.8 km/h (0 Bft) NO 0.00 h 131 W/m 12.5 C 13.4 C 1.6 km/h (1 Bft)
03.06.2007 10:00 15.3 C 87 % 1019.6 hPa 0.0 l/m 1.7 km/h (1 Bft) O-SO 0.03 h 282 W/m 13.1 C 15.3 C 3.5 km/h (1 Bft)
03.06.2007 11:00 17.1 C 79 % 1019.1 hPa 0.0 l/m 7.7 km/h (2 Bft) O-SO 0.35 h 505 W/m 13.4 C 17.1 C 12.0 km/h (2 Bft)
03.06.2007 12:00 18.6 C 72 % 1018.8 hPa 0.0 l/m 8.3 km/h (2 Bft) O-SO 0.47 h 589 W/m 13.5 C 18.6 C 12.9 km/h (3 Bft)
03.06.2007 13:00 19.5 C 70 % 1018.6 hPa 0.0 l/m 6.8 km/h (2 Bft) O-SO 0.50 h 644 W/m 13.9 C 19.5 C 10.4 km/h (2 Bft)
03.06.2007 14:00 20.6 C 67 % 1018.2 hPa 0.0 l/m 5.2 km/h (1 Bft) O-SO 0.52 h 647 W/m 14.2 C 20.6 C 8.4 km/h (2 Bft)
03.06.2007 15:00 21.7 C 64 % 1017.7 hPa 0.0 l/m 4.3 km/h (1 Bft) SO 0.92 h 748 W/m 14.5 C 21.7 C 7.3 km/h (2 Bft)
03.06.2007 16:00 22.1 C 61 % 1017.5 hPa 0.0 l/m 5.7 km/h (1 Bft) O-SO 0.82 h 606 W/m 14.3 C 22.1 C 9.1 km/h (2 Bft)
03.06.2007 17:00 22.5 C 58 % 1017.5 hPa 0.0 l/m 4.6 km/h (1 Bft) SO 1.00 h 496 W/m 13.8 C 22.5 C 7.8 km/h (2 Bft)
03.06.2007 18:00 22.3 C 61 % 1017.3 hPa 0.0 l/m 3.9 km/h (1 Bft) S-SO 0.98 h 334 W/m 14.5 C 22.3 C 7.2 km/h (2 Bft)
03.06.2007 19:00 20.9 C 67 % 1017.3 hPa 0.0 l/m 1.8 km/h (1 Bft) S 0.22 h 101 W/m 14.6 C 20.9 C 4.4 km/h (1 Bft)
03.06.2007 20:00 19.2 C 73 % 1017.5 hPa 0.0 l/m 0.4 km/h (0 Bft) S 0.00 h 30 W/m 14.2 C 19.2 C 1.4 km/h (1 Bft)
03.06.2007 21:00 17.0 C 83 % 1017.8 hPa 0.0 l/m 2.5 km/h (1 Bft) O-SO 0.00 h 6 W/m 14.0 C 17.0 C 3.6 km/h (1 Bft)
03.06.2007 22:00 15.7 C 88 % 1018.3 hPa 0.0 l/m 2.5 km/h (1 Bft) O-SO 0.00 h 0 W/m 13.8 C 15.7 C 3.5 km/h (1 Bft)
03.06.2007 23:00 14.7 C 91 % 1018.3 hPa 0.0 l/m 2.3 km/h (1 Bft) O-SO 0.00 h 0 W/m 13.3 C 14.7 C 3.2 km/h (1 Bft)
Min-Datum _ 30.05.07 30.05.07 28.05.07 - 28.05.07 - - - 30.05.07 29.05.07 28.05.07
_ Min-Zeit 05:06 17:43 01:15 - 00:06 - - - 11:50 11:35 00:07
Minimum _ 4.3 C 37 % 998.3 hPa - 0.0 km/h (0 Bft) - - - 1.1 C 3.4 C 0.0 km/h (0 Bft)
Max-Datum _ 03.06.07 28.05.07 02.06.07 01.06.07 29.05.07 - 28.05.07 31.05.07 03.06.07 03.06.07 29.05.07
_ Max-Zeit 17:12 03:53 22:45 18:09 10:38 - 13:38 13:11 19:12 17:12 08:08
Maximum _ 22.8 C 100 % 1021.1 hPa 2.8 l/m 35.7 km/h
W (5 Bft)
- 0.02 h 1185 W/m 16.2 C 22.8 C 50.4 km/h
W (7 Bft)
Durchschnitt _ 11.8 C 86 % 1012.7 hPa #32.2 l/m 4.0 km/h (1 Bft) W #22:22 h 226 W/m 9.2 C 11.5 C 6.9 km/h (2 Bft)
© Kaiko 2007